sensor_id;sensor_type;location;lat;lon;timestamp;pressure;altitude;pressure_sealevel;temperature;humidity
7888;BME280;3989;48.810;9.208;2023-04-25T00:01:44;98203.84;;;8.92;100.00
7888;BME280;3989;48.810;9.208;2023-04-25T00:04:11;98122.25;;;8.40;100.00
7888;BME280;3989;48.810;9.208;2023-04-25T00:06:39;98205.88;;;8.90;100.00
7888;BME280;3989;48.810;9.208;2023-04-25T00:09:06;98112.06;;;8.29;100.00
7888;BME280;3989;48.810;9.208;2023-04-25T00:11:35;98195.50;;;8.80;100.00
7888;BME280;3989;48.810;9.208;2023-04-25T00:14:02;98171.09;;;8.62;100.00
7888;BME280;3989;48.810;9.208;2023-04-25T00:16:29;98192.56;;;8.75;100.00
7888;BME280;3989;48.810;9.208;2023-04-25T00:18:58;98198.06;;;8.74;100.00
7888;BME280;3989;48.810;9.208;2023-04-25T00:21:25;98194.09;;;8.70;100.00
7888;BME280;3989;48.810;9.208;2023-04-25T00:23:53;98166.56;;;8.48;100.00
7888;BME280;3989;48.810;9.208;2023-04-25T00:26:20;98190.72;;;8.61;100.00
7888;BME280;3989;48.810;9.208;2023-04-25T00:28:47;98186.63;;;8.51;100.00
7888;BME280;3989;48.810;9.208;2023-04-25T00:31:14;98200.59;;;8.53;100.00
7888;BME280;3989;48.810;9.208;2023-04-25T00:33:40;98173.00;;;8.31;100.00
7888;BME280;3989;48.810;9.208;2023-04-25T00:36:08;98200.25;;;8.56;100.00
7888;BME280;3989;48.810;9.208;2023-04-25T00:38:35;98176.91;;;8.43;100.00
7888;BME280;3989;48.810;9.208;2023-04-25T00:41:04;98165.97;;;8.38;100.00
7888;BME280;3989;48.810;9.208;2023-04-25T00:43:32;98089.97;;;7.91;100.00
7888;BME280;3989;48.810;9.208;2023-04-25T00:45:59;98113.91;;;8.06;100.00
7888;BME280;3989;48.810;9.208;2023-04-25T00:48:26;98184.06;;;8.42;100.00
7888;BME280;3989;48.810;9.208;2023-04-25T00:50:54;98176.72;;;8.44;100.00
7888;BME280;3989;48.810;9.208;2023-04-25T00:53:21;98172.41;;;8.43;100.00
7888;BME280;3989;48.810;9.208;2023-04-25T00:55:50;98158.19;;;8.36;100.00
7888;BME280;3989;48.810;9.208;2023-04-25T00:58:18;98171.41;;;8.44;100.00
7888;BME280;3989;48.810;9.208;2023-04-25T01:00:45;98166.91;;;8.45;100.00
7888;BME280;3989;48.810;9.208;2023-04-25T01:03:12;98156.00;;;8.40;100.00
7888;BME280;3989;48.810;9.208;2023-04-25T01:05:41;98151.03;;;8.37;100.00
7888;BME280;3989;48.810;9.208;2023-04-25T01:08:08;98169.94;;;8.42;100.00
7888;BME280;3989;48.810;9.208;2023-04-25T01:10:36;98158.94;;;8.45;100.00
7888;BME280;3989;48.810;9.208;2023-04-25T01:13:03;98158.66;;;8.40;100.00
7888;BME280;3989;48.810;9.208;2023-04-25T01:15:31;98157.66;;;8.41;100.00
7888;BME280;3989;48.810;9.208;2023-04-25T01:17:58;98144.72;;;8.38;100.00
7888;BME280;3989;48.810;9.208;2023-04-25T01:20:26;98153.38;;;8.55;100.00
7888;BME280;3989;48.810;9.208;2023-04-25T01:22:55;98129.44;;;8.40;100.00
7888;BME280;3989;48.810;9.208;2023-04-25T01:25:23;98128.41;;;8.41;100.00
7888;BME280;3989;48.810;9.208;2023-04-25T01:27:50;98114.16;;;8.34;100.00
7888;BME280;3989;48.810;9.208;2023-04-25T01:30:17;98089.63;;;8.09;100.00
7888;BME280;3989;48.810;9.208;2023-04-25T01:32:45;98147.78;;;8.50;100.00
7888;BME280;3989;48.810;9.208;2023-04-25T01:35:13;98140.69;;;8.42;100.00
7888;BME280;3989;48.810;9.208;2023-04-25T01:37:40;98136.94;;;8.36;100.00
7888;BME280;3989;48.810;9.208;2023-04-25T01:40:10;98125.59;;;8.20;100.00
7888;BME280;3989;48.810;9.208;2023-04-25T01:42:39;98096.53;;;7.96;100.00
7888;BME280;3989;48.810;9.208;2023-04-25T01:45:07;98153.56;;;8.30;100.00
7888;BME280;3989;48.810;9.208;2023-04-25T01:47:34;98148.94;;;8.24;100.00
7888;BME280;3989;48.810;9.208;2023-04-25T01:50:01;98139.16;;;8.25;100.00
7888;BME280;3989;48.810;9.208;2023-04-25T01:52:28;98144.59;;;8.31;100.00
7888;BME280;3989;48.810;9.208;2023-04-25T01:54:55;98132.38;;;8.22;100.00
7888;BME280;3989;48.810;9.208;2023-04-25T01:57:24;98115.78;;;8.20;100.00
7888;BME280;3989;48.810;9.208;2023-04-25T01:59:51;98112.28;;;8.20;100.00
7888;BME280;3989;48.810;9.208;2023-04-25T02:02:18;98140.75;;;8.34;100.00
7888;BME280;3989;48.810;9.208;2023-04-25T02:04:45;98136.28;;;8.34;100.00
7888;BME280;3989;48.810;9.208;2023-04-25T02:07:12;98153.63;;;8.45;100.00
7888;BME280;3989;48.810;9.208;2023-04-25T02:09:38;98144.47;;;8.48;100.00
7888;BME280;3989;48.810;9.208;2023-04-25T02:12:07;98143.47;;;8.49;100.00
7888;BME280;3989;48.810;9.208;2023-04-25T02:14:34;98122.69;;;8.29;100.00
7888;BME280;3989;48.810;9.208;2023-04-25T02:17:01;98158.53;;;8.56;100.00
7888;BME280;3989;48.810;9.208;2023-04-25T02:19:28;98128.69;;;8.46;100.00
7888;BME280;3989;48.810;9.208;2023-04-25T02:21:55;98150.63;;;8.63;100.00
7888;BME280;3989;48.810;9.208;2023-04-25T02:24:22;98145.84;;;8.58;100.00
7888;BME280;3989;48.810;9.208;2023-04-25T02:26:49;98143.47;;;8.49;100.00
7888;BME280;3989;48.810;9.208;2023-04-25T02:29:15;98130.31;;;8.32;100.00
7888;BME280;3989;48.810;9.208;2023-04-25T02:31:43;98132.50;;;8.29;100.00
7888;BME280;3989;48.810;9.208;2023-04-25T02:34:10;98004.53;;;7.43;100.00
7888;BME280;3989;48.810;9.208;2023-04-25T02:36:36;98136.47;;;8.10;100.00
7888;BME280;3989;48.810;9.208;2023-04-25T02:39:03;98084.81;;;7.67;100.00
7888;BME280;3989;48.810;9.208;2023-04-25T02:41:30;98119.97;;;7.92;100.00
7888;BME280;3989;48.810;9.208;2023-04-25T02:43:56;98106.81;;;7.99;100.00
7888;BME280;3989;48.810;9.208;2023-04-25T02:46:23;98107.00;;;7.97;100.00
7888;BME280;3989;48.810;9.208;2023-04-25T02:48:51;98087.22;;;8.00;100.00
7888;BME280;3989;48.810;9.208;2023-04-25T02:51:17;98121.25;;;8.19;100.00
7888;BME280;3989;48.810;9.208;2023-04-25T02:53:44;98117.31;;;8.15;100.00
7888;BME280;3989;48.810;9.208;2023-04-25T02:56:11;98087.31;;;7.91;100.00
7888;BME280;3989;48.810;9.208;2023-04-25T02:58:37;98089.06;;;7.76;100.00
7888;BME280;3989;48.810;9.208;2023-04-25T03:01:04;98111.09;;;7.85;100.00
7888;BME280;3989;48.810;9.208;2023-04-25T03:05:59;98115.50;;;7.92;100.00
7888;BME280;3989;48.810;9.208;2023-04-25T03:08:26;98125.38;;;8.07;100.00
7888;BME280;3989;48.810;9.208;2023-04-25T03:10:57;98131.91;;;8.19;100.00
7888;BME280;3989;48.810;9.208;2023-04-25T03:13:24;98125.38;;;8.29;100.00
7888;BME280;3989;48.810;9.208;2023-04-25T03:15:50;98122.16;;;8.34;100.00
7888;BME280;3989;48.810;9.208;2023-04-25T03:18:17;98122.81;;;8.36;100.00
7888;BME280;3989;48.810;9.208;2023-04-25T03:20:43;98116.47;;;8.37;100.00
7888;BME280;3989;48.810;9.208;2023-04-25T03:23:11;98111.97;;;8.37;100.00
7888;BME280;3989;48.810;9.208;2023-04-25T03:25:38;98104.00;;;8.37;100.00
7888;BME280;3989;48.810;9.208;2023-04-25T03:28:04;98107.22;;;8.33;100.00
7888;BME280;3989;48.810;9.208;2023-04-25T03:30:31;98113.22;;;8.27;100.00
7888;BME280;3989;48.810;9.208;2023-04-25T03:32:58;98109.81;;;8.18;100.00
7888;BME280;3989;48.810;9.208;2023-04-25T03:35:24;98045.34;;;7.64;100.00
7888;BME280;3989;48.810;9.208;2023-04-25T03:37:51;97927.16;;;6.85;100.00
7888;BME280;3989;48.810;9.208;2023-04-25T03:40:19;98116.91;;;8.03;100.00
7888;BME280;3989;48.810;9.208;2023-04-25T03:42:45;98080.22;;;7.84;100.00
7888;BME280;3989;48.810;9.208;2023-04-25T03:45:12;98097.94;;;7.91;100.00
7888;BME280;3989;48.810;9.208;2023-04-25T03:47:38;98071.31;;;7.77;100.00
7888;BME280;3989;48.810;9.208;2023-04-25T03:50:06;98092.31;;;7.86;100.00
7888;BME280;3989;48.810;9.208;2023-04-25T03:52:32;98089.75;;;7.93;100.00
7888;BME280;3989;48.810;9.208;2023-04-25T03:54:59;98099.63;;;7.84;100.00
7888;BME280;3989;48.810;9.208;2023-04-25T03:57:27;98087.31;;;7.91;100.00
7888;BME280;3989;48.810;9.208;2023-04-25T03:59:53;98045.09;;;7.74;100.00
7888;BME280;3989;48.810;9.208;2023-04-25T04:02:20;98108.69;;;8.13;100.00
7888;BME280;3989;48.810;9.208;2023-04-25T04:04:46;98098.59;;;8.08;100.00
7888;BME280;3989;48.810;9.208;2023-04-25T04:07:13;98091.78;;;7.91;100.00
7888;BME280;3989;48.810;9.208;2023-04-25T04:09:40;97960.38;;;7.04;100.00
7888;BME280;3989;48.810;9.208;2023-04-25T04:12:06;98101.50;;;7.76;100.00
7888;BME280;3989;48.810;9.208;2023-04-25T04:14:34;98111.72;;;7.87;100.00
7888;BME280;3989;48.810;9.208;2023-04-25T04:17:01;98116.06;;;7.88;100.00
7888;BME280;3989;48.810;9.208;2023-04-25T04:19:27;98057.03;;;7.55;100.00
7888;BME280;3989;48.810;9.208;2023-04-25T04:21:54;98114.91;;;7.82;100.00
7888;BME280;3989;48.810;9.208;2023-04-25T04:24:20;98124.25;;;7.78;100.00
7888;BME280;3989;48.810;9.208;2023-04-25T04:26:47;98078.78;;;7.51;100.00
7888;BME280;3989;48.810;9.208;2023-04-25T04:29:13;98123.13;;;7.73;100.00
7888;BME280;3989;48.810;9.208;2023-04-25T04:31:48;98001.28;;;6.79;100.00
7888;BME280;3989;48.810;9.208;2023-04-25T04:34:14;98128.78;;;7.70;100.00
7888;BME280;3989;48.810;9.208;2023-04-25T04:36:41;98060.03;;;7.29;100.00
7888;BME280;3989;48.810;9.208;2023-04-25T04:39:08;98093.84;;;7.58;100.00
7888;BME280;3989;48.810;9.208;2023-04-25T04:41:36;98128.91;;;7.76;100.00
7888;BME280;3989;48.810;9.208;2023-04-25T04:44:02;98133.00;;;7.87;100.00
7888;BME280;3989;48.810;9.208;2023-04-25T04:46:29;98105.47;;;7.80;100.00
7888;BME280;3989;48.810;9.208;2023-04-25T04:48:57;98057.75;;;7.49;100.00
7888;BME280;3989;48.810;9.208;2023-04-25T04:51:24;98151.50;;;8.18;100.00
7888;BME280;3989;48.810;9.208;2023-04-25T04:53:51;98055.09;;;7.72;100.00
7888;BME280;3989;48.810;9.208;2023-04-25T04:56:17;98123.19;;;8.10;100.00
7888;BME280;3989;48.810;9.208;2023-04-25T04:58:46;98090.50;;;8.02;100.00
7888;BME280;3989;48.810;9.208;2023-04-25T05:01:14;98118.25;;;8.22;100.00
7888;BME280;3989;48.810;9.208;2023-04-25T05:03:41;98155.66;;;8.43;100.00
7888;BME280;3989;48.810;9.208;2023-04-25T05:06:09;98153.91;;;8.50;100.00
7888;BME280;3989;48.810;9.208;2023-04-25T05:08:36;98068.78;;;7.98;100.00
7888;BME280;3989;48.810;9.208;2023-04-25T05:11:03;98122.44;;;8.39;100.00
7888;BME280;3989;48.810;9.208;2023-04-25T05:13:30;98041.66;;;7.88;100.00
7888;BME280;3989;48.810;9.208;2023-04-25T05:15:56;98060.59;;;8.08;100.00
7888;BME280;3989;48.810;9.208;2023-04-25T05:18:23;98153.38;;;8.69;100.00
7888;BME280;3989;48.810;9.208;2023-04-25T05:20:50;98136.63;;;8.69;100.00
7888;BME280;3989;48.810;9.208;2023-04-25T05:23:18;98157.63;;;8.93;100.00
7888;BME280;3989;48.810;9.208;2023-04-25T05:25:44;98064.16;;;8.52;100.00
7888;BME280;3989;48.810;9.208;2023-04-25T05:28:12;98153.47;;;9.20;100.00
7888;BME280;3989;48.810;9.208;2023-04-25T05:30:39;98155.31;;;9.19;100.00
7888;BME280;3989;48.810;9.208;2023-04-25T05:33:06;98061.59;;;8.59;100.00
7888;BME280;3989;48.810;9.208;2023-04-25T05:35:33;98161.38;;;9.13;100.00
7888;BME280;3989;48.810;9.208;2023-04-25T05:37:59;97907.78;;;7.45;100.00
7888;BME280;3989;48.810;9.208;2023-04-25T05:40:28;98053.72;;;8.13;100.00
7888;BME280;3989;48.810;9.208;2023-04-25T05:42:54;98161.66;;;8.37;100.00
7888;BME280;3989;48.810;9.208;2023-04-25T05:45:21;98172.53;;;8.05;100.00
7888;BME280;3989;48.810;9.208;2023-04-25T05:47:48;98077.16;;;7.19;100.00
7888;BME280;3989;48.810;9.208;2023-04-25T05:50:15;98098.41;;;7.19;100.00
7888;BME280;3989;48.810;9.208;2023-04-25T05:52:41;98062.19;;;6.95;100.00
7888;BME280;3989;48.810;9.208;2023-04-25T05:55:08;98155.56;;;7.60;100.00
7888;BME280;3989;48.810;9.208;2023-04-25T05:57:37;98156.91;;;7.56;100.00
7888;BME280;3989;48.810;9.208;2023-04-25T06:00:07;98110.97;;;7.25;100.00
7888;BME280;3989;48.810;9.208;2023-04-25T06:02:34;98157.81;;;7.49;100.00
7888;BME280;3989;48.810;9.208;2023-04-25T06:05:01;98156.00;;;7.41;100.00
7888;BME280;3989;48.810;9.208;2023-04-25T06:07:28;98135.31;;;7.36;100.00
7888;BME280;3989;48.810;9.208;2023-04-25T06:09:55;98156.28;;;7.54;100.00
7888;BME280;3989;48.810;9.208;2023-04-25T06:12:22;98044.78;;;7.01;100.00
7888;BME280;3989;48.810;9.208;2023-04-25T06:14:50;98168.72;;;7.84;100.00
7888;BME280;3989;48.810;9.208;2023-04-25T06:17:16;98039.91;;;7.12;100.00
7888;BME280;3989;48.810;9.208;2023-04-25T06:19:43;98138.06;;;7.74;100.00
7888;BME280;3989;48.810;9.208;2023-04-25T06:22:10;98135.88;;;8.00;100.00
7888;BME280;3989;48.810;9.208;2023-04-25T06:24:36;98163.88;;;8.33;100.00
7888;BME280;3989;48.810;9.208;2023-04-25T06:27:03;98025.16;;;7.78;100.00
7888;BME280;3989;48.810;9.208;2023-04-25T06:29:30;98163.41;;;8.82;100.00
7888;BME280;3989;48.810;9.208;2023-04-25T06:31:58;98175.72;;;8.98;100.00
7888;BME280;3989;48.810;9.208;2023-04-25T06:34:24;98153.38;;;8.98;100.00
7888;BME280;3989;48.810;9.208;2023-04-25T06:36:51;98117.69;;;8.93;100.00
7888;BME280;3989;48.810;9.208;2023-04-25T06:39:18;98094.94;;;8.90;100.00
7888;BME280;3989;48.810;9.208;2023-04-25T06:41:45;98021.41;;;8.54;100.00
7888;BME280;3989;48.810;9.208;2023-04-25T06:44:11;98141.72;;;9.29;100.00
7888;BME280;3989;48.810;9.208;2023-04-25T06:46:38;98087.47;;;9.15;100.00
7888;BME280;3989;48.810;9.208;2023-04-25T06:49:06;98160.25;;;9.73;100.00
7888;BME280;3989;48.810;9.208;2023-04-25T06:51:32;98000.81;;;8.91;100.00
7888;BME280;3989;48.810;9.208;2023-04-25T06:53:59;98139.53;;;9.89;100.00
7888;BME280;3989;48.810;9.208;2023-04-25T06:56:26;98052.47;;;9.54;100.00
7888;BME280;3989;48.810;9.208;2023-04-25T06:58:53;98159.06;;;9.96;100.00
7888;BME280;3989;48.810;9.208;2023-04-25T07:01:20;98157.72;;;9.86;100.00
7888;BME280;3989;48.810;9.208;2023-04-25T07:03:46;98110.75;;;9.42;100.00
7888;BME280;3989;48.810;9.208;2023-04-25T07:06:14;97949.25;;;8.42;100.00
7888;BME280;3989;48.810;9.208;2023-04-25T07:08:41;98017.38;;;8.58;100.00
7888;BME280;3989;48.810;9.208;2023-04-25T07:11:07;98160.28;;;9.37;100.00
7888;BME280;3989;48.810;9.208;2023-04-25T07:13:36;98156.94;;;9.35;100.00
7888;BME280;3989;48.810;9.208;2023-04-25T07:16:03;98156.13;;;9.34;100.00
7888;BME280;3989;48.810;9.208;2023-04-25T07:18:30;98116.59;;;9.17;100.00
7888;BME280;3989;48.810;9.208;2023-04-25T07:20:56;98159.81;;;9.33;100.00
7888;BME280;3989;48.810;9.208;2023-04-25T07:23:24;98173.59;;;9.22;100.00
7888;BME280;3989;48.810;9.208;2023-04-25T07:25:51;98165.34;;;9.17;100.00
7888;BME280;3989;48.810;9.208;2023-04-25T07:28:17;98159.00;;;9.04;100.00
7888;BME280;3989;48.810;9.208;2023-04-25T07:30:44;98178.56;;;9.11;100.00
7888;BME280;3989;48.810;9.208;2023-04-25T07:33:11;98201.22;;;9.07;100.00
7888;BME280;3989;48.810;9.208;2023-04-25T07:35:37;98172.84;;;8.99;100.00
7888;BME280;3989;48.810;9.208;2023-04-25T07:38:04;98146.53;;;8.75;100.00
7888;BME280;3989;48.810;9.208;2023-04-25T07:40:33;98154.13;;;8.78;100.00
7888;BME280;3989;48.810;9.208;2023-04-25T07:43:00;98155.44;;;8.82;100.00
7888;BME280;3989;48.810;9.208;2023-04-25T07:45:27;97986.25;;;7.85;100.00
7888;BME280;3989;48.810;9.208;2023-04-25T07:47:54;98097.16;;;8.58;100.00
7888;BME280;3989;48.810;9.208;2023-04-25T07:50:20;98132.19;;;8.76;100.00
7888;BME280;3989;48.810;9.208;2023-04-25T07:52:47;98190.75;;;9.05;100.00
7888;BME280;3989;48.810;9.208;2023-04-25T07:55:14;98158.59;;;8.63;100.00
7888;BME280;3989;48.810;9.208;2023-04-25T07:57:42;98189.63;;;8.70;100.00
7888;BME280;3989;48.810;9.208;2023-04-25T08:00:09;98058.38;;;7.74;100.00
7888;BME280;3989;48.810;9.208;2023-04-25T08:02:36;98193.16;;;8.63;100.00
7888;BME280;3989;48.810;9.208;2023-04-25T08:05:04;98050.78;;;7.71;100.00
7888;BME280;3989;48.810;9.208;2023-04-25T08:07:33;98203.38;;;8.74;100.00
7888;BME280;3989;48.810;9.208;2023-04-25T08:09:59;98172.16;;;8.53;100.00
7888;BME280;3989;48.810;9.208;2023-04-25T08:12:26;98210.84;;;8.78;100.00
7888;BME280;3989;48.810;9.208;2023-04-25T08:14:54;98213.13;;;8.81;100.00
7888;BME280;3989;48.810;9.208;2023-04-25T08:17:20;98198.97;;;8.66;100.00
7888;BME280;3989;48.810;9.208;2023-04-25T08:19:47;98222.19;;;8.72;100.00
7888;BME280;3989;48.810;9.208;2023-04-25T08:22:13;98221.31;;;8.57;100.00
7888;BME280;3989;48.810;9.208;2023-04-25T08:24:41;98209.53;;;8.37;100.00
7888;BME280;3989;48.810;9.208;2023-04-25T08:27:07;98128.16;;;7.90;100.00
7888;BME280;3989;48.810;9.208;2023-04-25T08:29:34;98232.22;;;8.48;100.00
7888;BME280;3989;48.810;9.208;2023-04-25T08:32:02;98234.59;;;8.42;100.00
7888;BME280;3989;48.810;9.208;2023-04-25T08:34:28;98202.22;;;8.08;100.00
7888;BME280;3989;48.810;9.208;2023-04-25T08:36:55;98245.81;;;8.22;100.00
7888;BME280;3989;48.810;9.208;2023-04-25T08:39:22;98213.31;;;7.89;100.00
7888;BME280;3989;48.810;9.208;2023-04-25T08:41:48;98245.72;;;8.15;100.00
7888;BME280;3989;48.810;9.208;2023-04-25T08:44:16;98250.53;;;8.12;100.00
7888;BME280;3989;48.810;9.208;2023-04-25T08:46:45;98113.34;;;7.12;100.00
7888;BME280;3989;48.810;9.208;2023-04-25T08:49:16;98260.28;;;7.97;100.00
7888;BME280;3989;48.810;9.208;2023-04-25T08:51:44;98270.91;;;7.97;100.00
7888;BME280;3989;48.810;9.208;2023-04-25T08:54:13;98090.03;;;6.99;100.00
7888;BME280;3989;48.810;9.208;2023-04-25T08:56:43;98213.06;;;7.76;100.00
7888;BME280;3989;48.810;9.208;2023-04-25T08:59:10;98138.59;;;7.38;100.00
7888;BME280;3989;48.810;9.208;2023-04-25T09:01:36;98275.53;;;8.33;100.00
7888;BME280;3989;48.810;9.208;2023-04-25T12:48:01;98188.53;;;7.74;100.00
7888;BME280;3989;48.810;9.208;2023-04-25T12:51:01;98481.94;;;10.45;100.00
7888;BME280;3989;48.810;9.208;2023-04-25T12:53:40;98491.06;;;11.23;100.00
7888;BME280;3989;48.810;9.208;2023-04-25T12:56:07;98374.00;;;10.63;100.00
7888;BME280;3989;48.810;9.208;2023-04-25T12:58:34;98489.78;;;11.19;100.00
7888;BME280;3989;48.810;9.208;2023-04-25T13:01:01;98356.69;;;9.93;100.00
7888;BME280;3989;48.810;9.208;2023-04-25T13:03:29;98494.81;;;10.92;100.00
7888;BME280;3989;48.810;9.208;2023-04-25T13:05:56;98494.75;;;10.86;100.00
7888;BME280;3989;48.810;9.208;2023-04-25T13:08:23;98482.56;;;10.18;100.00
7888;BME280;3989;48.810;9.208;2023-04-25T13:10:50;98338.09;;;8.89;100.00
7888;BME280;3989;48.810;9.208;2023-04-25T13:13:16;98499.09;;;9.62;100.00
7888;BME280;3989;48.810;9.208;2023-04-25T13:15:43;98400.75;;;9.15;100.00
7888;BME280;3989;48.810;9.208;2023-04-25T13:18:12;98345.69;;;9.15;100.00
7888;BME280;3989;48.810;9.208;2023-04-25T13:20:41;98423.03;;;9.74;100.00
7888;BME280;3989;48.810;9.208;2023-04-25T13:23:07;98422.53;;;10.22;100.00
7888;BME280;3989;48.810;9.208;2023-04-25T13:25:35;98348.31;;;10.26;100.00
7888;BME280;3989;48.810;9.208;2023-04-25T13:28:02;98422.56;;;10.58;100.00
7888;BME280;3989;48.810;9.208;2023-04-25T13:30:28;98407.03;;;10.62;100.00
7888;BME280;3989;48.810;9.208;2023-04-25T13:32:55;98454.63;;;10.79;100.00
7888;BME280;3989;48.810;9.208;2023-04-25T13:35:25;98264.38;;;9.57;100.00
7888;BME280;3989;48.810;9.208;2023-04-25T13:37:55;98480.72;;;10.63;100.00
7888;BME280;3989;48.810;9.208;2023-04-25T13:40:22;98424.28;;;10.15;100.00
7888;BME280;3989;48.810;9.208;2023-04-25T13:42:48;98451.47;;;9.81;100.00
7888;BME280;3989;48.810;9.208;2023-04-25T13:45:16;98347.88;;;8.74;100.00
7888;BME280;3989;48.810;9.208;2023-04-25T13:47:46;98338.69;;;8.54;100.00
7888;BME280;3989;48.810;9.208;2023-04-25T13:50:27;98444.91;;;9.32;100.00
7888;BME280;3989;48.810;9.208;2023-04-25T13:52:55;98388.47;;;9.51;100.00
7888;BME280;3989;48.810;9.208;2023-04-25T13:55:22;98432.47;;;10.14;100.00
7888;BME280;3989;48.810;9.208;2023-04-25T13:57:49;98449.03;;;10.24;100.00
7888;BME280;3989;48.810;9.208;2023-04-25T14:00:16;98271.31;;;8.99;100.00
7888;BME280;3989;48.810;9.208;2023-04-25T14:02:43;98516.22;;;10.63;100.00
7888;BME280;3989;48.810;9.208;2023-04-25T14:05:10;98505.53;;;10.78;100.00
7888;BME280;3989;48.810;9.208;2023-04-25T14:07:37;98469.59;;;10.44;100.00
7888;BME280;3989;48.810;9.208;2023-04-25T14:10:06;98484.06;;;10.35;100.00
7888;BME280;3989;48.810;9.208;2023-04-25T14:12:32;98481.44;;;10.13;100.00
7888;BME280;3989;48.810;9.208;2023-04-25T14:14:59;98484.78;;;10.15;100.00
7888;BME280;3989;48.810;9.208;2023-04-25T14:17:26;98503.50;;;10.94;100.00
7888;BME280;3989;48.810;9.208;2023-04-25T14:19:53;98503.94;;;11.34;100.00
7888;BME280;3989;48.810;9.208;2023-04-25T14:22:20;98361.28;;;10.65;100.00
7888;BME280;3989;48.810;9.208;2023-04-25T14:24:46;98492.94;;;11.43;100.00
7888;BME280;3989;48.810;9.208;2023-04-25T14:27:14;98497.00;;;11.82;100.00
7888;BME280;3989;48.810;9.208;2023-04-25T14:29:41;98486.69;;;11.79;100.00
7888;BME280;3989;48.810;9.208;2023-04-25T14:32:08;98466.47;;;11.27;100.00
7888;BME280;3989;48.810;9.208;2023-04-25T14:34:35;98451.47;;;10.69;100.00
7888;BME280;3989;48.810;9.208;2023-04-25T14:37:02;98511.84;;;11.06;100.00
7888;BME280;3989;48.810;9.208;2023-04-25T14:39:28;98442.56;;;10.47;100.00
7888;BME280;3989;48.810;9.208;2023-04-25T14:41:55;98495.97;;;10.83;100.00
7888;BME280;3989;48.810;9.208;2023-04-25T14:44:24;98408.00;;;10.25;100.00
7888;BME280;3989;48.810;9.208;2023-04-25T14:46:51;98442.63;;;11.04;100.00
7888;BME280;3989;48.810;9.208;2023-04-25T14:49:18;98448.25;;;11.37;100.00
7888;BME280;3989;48.810;9.208;2023-04-25T14:51:45;98411.59;;;10.68;100.00
7888;BME280;3989;48.810;9.208;2023-04-25T14:54:12;98498.13;;;10.44;100.00
7888;BME280;3989;48.810;9.208;2023-04-25T14:56:39;98400.94;;;9.50;100.00
7888;BME280;3989;48.810;9.208;2023-04-25T14:59:05;98456.28;;;9.63;100.00
7888;BME280;3989;48.810;9.208;2023-04-25T15:01:34;98453.38;;;10.02;100.00
7888;BME280;3989;48.810;9.208;2023-04-25T15:04:01;98462.38;;;11.31;100.00
7888;BME280;3989;48.810;9.208;2023-04-25T15:06:28;98352.88;;;10.89;100.00
7888;BME280;3989;48.810;9.208;2023-04-25T15:08:55;98460.41;;;10.97;100.00
7888;BME280;3989;48.810;9.208;2023-04-25T15:11:22;98492.59;;;10.96;100.00
7888;BME280;3989;48.810;9.208;2023-04-25T15:13:49;98441.56;;;11.05;100.00
7888;BME280;3989;48.810;9.208;2023-04-25T15:16:16;98476.00;;;11.79;100.00
7888;BME280;3989;48.810;9.208;2023-04-25T15:18:44;98348.97;;;14.34;100.00
7888;BME280;3989;48.810;9.208;2023-04-25T15:21:10;98448.28;;;14.91;100.00
7888;BME280;3989;48.810;9.208;2023-04-25T15:23:37;98498.88;;;15.39;100.00
7888;BME280;3989;48.810;9.208;2023-04-25T15:26:04;98504.03;;;17.48;100.00
7888;BME280;3989;48.810;9.208;2023-04-25T15:28:31;98509.75;;;17.10;100.00
7888;BME280;3989;48.810;9.208;2023-04-25T15:30:58;98508.63;;;15.33;100.00
7888;BME280;3989;48.810;9.208;2023-04-25T15:33:25;98348.75;;;13.38;100.00
7888;BME280;3989;48.810;9.208;2023-04-25T15:35:53;98526.31;;;14.52;91.46
7888;BME280;3989;48.810;9.208;2023-04-25T15:38:20;98461.28;;;13.32;100.00
7888;BME280;3989;48.810;9.208;2023-04-25T15:40:46;98450.13;;;12.14;100.00
7888;BME280;3989;48.810;9.208;2023-04-25T15:43:13;98527.50;;;12.49;100.00
7888;BME280;3989;48.810;9.208;2023-04-25T15:45:41;98536.34;;;12.43;100.00
7888;BME280;3989;48.810;9.208;2023-04-25T15:48:09;98553.47;;;12.21;100.00
7888;BME280;3989;48.810;9.208;2023-04-25T15:50:36;98535.78;;;11.99;100.00
7888;BME280;3989;48.810;9.208;2023-04-25T15:53:04;98508.75;;;11.66;100.00
7888;BME280;3989;48.810;9.208;2023-04-25T15:55:31;98546.63;;;11.91;100.00
7888;BME280;3989;48.810;9.208;2023-04-25T15:57:58;98560.56;;;12.07;100.00
7888;BME280;3989;48.810;9.208;2023-04-25T16:00:25;98521.03;;;12.31;100.00
7888;BME280;3989;48.810;9.208;2023-04-25T16:02:52;98539.81;;;13.19;100.00
7888;BME280;3989;48.810;9.208;2023-04-25T16:05:18;98520.97;;;15.54;72.40
7888;BME280;3989;48.810;9.208;2023-04-25T16:07:45;98492.13;;;15.23;65.75
7888;BME280;3989;48.810;9.208;2023-04-25T16:10:14;98544.00;;;14.79;74.96
7888;BME280;3989;48.810;9.208;2023-04-25T16:12:44;98467.88;;;13.23;88.00
7888;BME280;3989;48.810;9.208;2023-04-25T16:15:12;98541.69;;;12.84;100.00
7888;BME280;3989;48.810;9.208;2023-04-25T16:17:38;98540.47;;;12.18;100.00
7888;BME280;3989;48.810;9.208;2023-04-25T16:20:06;98536.63;;;11.99;100.00
7888;BME280;3989;48.810;9.208;2023-04-25T16:22:34;98533.88;;;11.93;100.00
7888;BME280;3989;48.810;9.208;2023-04-25T16:25:01;98543.94;;;12.40;100.00
7888;BME280;3989;48.810;9.208;2023-04-25T16:27:30;98541.19;;;13.02;94.70
7888;BME280;3989;48.810;9.208;2023-04-25T16:29:58;98548.53;;;12.93;92.46
7888;BME280;3989;48.810;9.208;2023-04-25T16:32:25;98546.63;;;12.81;96.08
7888;BME280;3989;48.810;9.208;2023-04-25T16:34:52;98521.03;;;12.31;97.51
7888;BME280;3989;48.810;9.208;2023-04-25T16:37:18;98562.63;;;12.12;95.71
7888;BME280;3989;48.810;9.208;2023-04-25T16:39:45;98531.28;;;11.57;97.08
7888;BME280;3989;48.810;9.208;2023-04-25T16:42:12;98526.34;;;11.18;100.00
7888;BME280;3989;48.810;9.208;2023-04-25T16:44:40;98524.09;;;11.00;100.00
7888;BME280;3989;48.810;9.208;2023-04-25T16:47:06;98485.94;;;10.71;100.00
7888;BME280;3989;48.810;9.208;2023-04-25T16:49:33;98553.63;;;11.14;100.00
7888;BME280;3989;48.810;9.208;2023-04-25T16:52:00;98565.25;;;11.06;100.00
7888;BME280;3989;48.810;9.208;2023-04-25T16:54:27;98566.66;;;10.87;100.00
7888;BME280;3989;48.810;9.208;2023-04-25T16:56:53;98488.56;;;10.20;100.00
7888;BME280;3989;48.810;9.208;2023-04-25T16:59:20;98567.75;;;10.64;100.00
7888;BME280;3989;48.810;9.208;2023-04-25T17:01:48;98480.72;;;10.04;100.00
7888;BME280;3989;48.810;9.208;2023-04-25T17:04:14;98573.28;;;10.47;100.00
7888;BME280;3989;48.810;9.208;2023-04-25T17:06:41;98444.72;;;9.56;100.00